Time;durP1;ratioP1;P1;durP2;ratioP2;P2;SDS_P1;SDS_P2;PMS_P1;PMS_P2;Temp;Humidity;BMP_temperature;BMP_pressure;BME280_temperature;BME280_humidity;BME280_pressure;Samples;Min_cycle;Max_cycle;Signal;HPM_P1;HPM_P2
2023/06/11 00:00:14;;;;;;;4.95;4.55;;;;;;;24.23;46.86;100051.41;10287602;28;20478;-57
2023/06/11 00:05:15;;;;;;;5.78;5.30;;;;;;;24.23;46.75;100062.28;10298136;28;20069;-57
2023/06/11 00:10:17;;;;;;;5.40;4.90;;;;;;;24.23;46.91;100065.00;10300465;28;20046;-57
2023/06/11 00:15:18;;;;;;;5.55;4.85;;;;;;;24.21;47.21;100072.50;10297628;28;20224;-55
2023/06/11 00:20:20;;;;;;;5.65;4.97;;;;;;;24.18;46.89;100075.66;10289197;28;20132;-55
2023/06/11 00:25:22;;;;;;;5.50;5.10;;;;;;;24.18;46.95;100081.97;10292708;28;20569;-55
2023/06/11 00:30:24;;;;;;;5.93;5.43;;;;;;;24.14;46.97;100080.72;10313566;28;20494;-55
2023/06/11 00:35:26;;;;;;;5.95;5.40;;;;;;;24.08;47.84;100086.19;10311829;28;20049;-55
2023/06/11 00:40:28;;;;;;;6.23;5.73;;;;;;;24.03;47.69;100078.66;10310262;28;20057;-55
2023/06/11 00:45:32;;;;;;;5.60;5.18;;;;;;;24.00;47.57;100085.41;10310630;28;20776;-55
2023/06/11 00:50:44;;;;;;;5.90;5.45;;;;;;;23.97;47.89;100074.94;10293797;28;20137;-55
2023/06/11 00:55:46;;;;;;;5.70;5.30;;;;;;;23.91;48.06;100078.50;10308253;28;21264;-55
2023/06/11 01:00:57;;;;;;;5.55;5.15;;;;;;;23.86;48.25;100083.78;10310550;28;20054;-55
2023/06/11 01:06:04;;;;;;;6.13;5.63;;;;;;;23.79;48.43;100077.50;10303389;28;20811;-55
2023/06/11 01:11:13;;;;;;;6.05;4.90;;;;;;;23.79;48.53;100082.94;10309293;28;20054;-55
2023/06/11 01:16:32;;;;;;;5.85;5.40;;;;;;;23.73;48.72;100078.34;10289953;28;20785;-55
2023/06/11 01:21:45;;;;;;;6.72;5.80;;;;;;;23.65;49.07;100072.09;10295943;28;20540;-55
2023/06/11 01:27:10;;;;;;;6.40;5.90;;;;;;;23.50;49.03;100084.28;10303133;28;21800;-55
2023/06/11 01:32:15;;;;;;;6.72;6.20;;;;;;;23.45;49.90;100082.22;10309198;28;20485;-55
2023/06/11 01:37:17;;;;;;;6.95;6.35;;;;;;;23.40;49.72;100079.28;10308530;28;20117;-55
2023/06/11 01:42:18;;;;;;;6.70;6.20;;;;;;;23.34;49.85;100077.41;10308820;28;20181;-55
2023/06/11 01:47:21;;;;;;;6.63;6.00;;;;;;;23.42;49.66;100079.88;10291251;28;20054;-56
2023/06/11 01:52:22;;;;;;;5.93;5.47;;;;;;;23.35;49.49;100081.81;10308714;28;20107;-55
2023/06/11 01:57:24;;;;;;;6.25;5.78;;;;;;;23.29;49.98;100083.47;10307840;28;20395;-56
2023/06/11 02:02:27;;;;;;;5.55;5.05;;;;;;;23.28;49.52;100081.81;10306776;28;20481;-56
2023/06/11 02:07:28;;;;;;;5.60;5.05;;;;;;;23.21;49.64;100076.41;10308294;28;20049;-57
2023/06/11 02:12:30;;;;;;;5.43;5.00;;;;;;;23.14;50.09;100078.28;10298527;28;20076;-56
2023/06/11 02:17:31;;;;;;;5.88;5.43;;;;;;;23.12;50.00;100083.09;10303375;28;20156;-56
2023/06/11 02:22:34;;;;;;;5.95;5.45;;;;;;;23.08;49.97;100084.53;10303835;28;20073;-56
2023/06/11 02:27:35;;;;;;;5.13;4.72;;;;;;;23.04;50.14;100085.97;10303269;28;20138;-56
2023/06/11 02:32:37;;;;;;;5.85;5.05;;;;;;;22.95;50.62;100082.63;10309608;28;20530;-56
2023/06/11 02:37:38;;;;;;;6.35;5.53;;;;;;;22.92;50.61;100083.91;10290458;28;20050;-56
2023/06/11 02:42:40;;;;;;;6.20;5.70;;;;;;;22.91;50.58;100087.66;10308390;28;20046;-56
2023/06/11 02:47:41;;;;;;;5.85;5.35;;;;;;;22.88;50.60;100087.22;10309516;28;20782;-56
2023/06/11 02:52:43;;;;;;;6.68;6.00;;;;;;;22.84;50.80;100086.00;10309989;28;20437;-57
2023/06/11 02:57:44;;;;;;;5.88;5.38;;;;;;;22.79;51.02;100086.63;10286972;28;20136;-56
2023/06/11 03:02:46;;;;;;;6.35;5.85;;;;;;;22.74;50.78;100092.66;10287812;28;20053;-56
2023/06/11 03:07:47;;;;;;;5.65;5.15;;;;;;;22.59;51.07;100084.72;10301469;28;20049;-56
2023/06/11 03:12:49;;;;;;;5.85;5.32;;;;;;;22.67;51.19;100102.66;10304241;28;20045;-56
2023/06/11 03:17:50;;;;;;;5.13;4.72;;;;;;;22.64;51.25;100118.50;10296291;28;21310;-56
2023/06/11 03:22:52;;;;;;;5.78;5.30;;;;;;;22.60;51.67;100128.94;10304841;28;20058;-56
2023/06/11 03:27:54;;;;;;;6.30;5.70;;;;;;;22.52;51.68;100127.25;10305321;28;20729;-56
2023/06/11 03:32:55;;;;;;;6.10;5.60;;;;;;;22.50;52.16;100123.91;10307873;28;20046;-56
2023/06/11 03:37:57;;;;;;;6.32;5.82;;;;;;;22.42;51.99;100122.22;10304834;28;20544;-56
2023/06/11 03:42:59;;;;;;;6.30;5.80;;;;;;;22.44;52.08;100122.00;10293620;28;20510;-56
2023/06/11 03:48:04;;;;;;;6.60;6.00;;;;;;;22.40;52.47;100118.88;10308702;28;20054;-56
2023/06/11 03:53:06;;;;;;;6.55;5.95;;;;;;;22.41;52.10;100120.56;10286097;28;20050;-57
2023/06/11 03:58:07;;;;;;;6.20;5.60;;;;;;;22.44;51.52;100130.16;10309196;28;20566;-56
2023/06/11 04:03:08;;;;;;;6.55;5.90;;;;;;;22.45;51.71;100126.41;10301771;28;20045;-58
2023/06/11 04:08:10;;;;;;;6.10;5.60;;;;;;;22.45;52.01;100134.53;10316823;28;20050;-57
2023/06/11 04:13:12;;;;;;;7.32;5.80;;;;;;;22.47;52.00;100143.28;10294801;28;20089;-57
2023/06/11 04:18:14;;;;;;;7.03;5.85;;;;;;;22.46;51.74;100144.34;10314324;28;20748;-57
2023/06/11 04:23:15;;;;;;;5.93;5.47;;;;;;;22.45;51.85;100137.25;10320506;28;20609;-57
2023/06/11 04:28:17;;;;;;;6.07;5.57;;;;;;;22.47;52.14;100146.00;10292420;28;20397;-57
2023/06/11 04:33:19;;;;;;;6.00;5.60;;;;;;;22.49;51.85;100143.09;10314159;28;20517;-58
2023/06/11 04:38:24;;;;;;;6.05;5.55;;;;;;;22.47;51.84;100146.00;10313375;28;20065;-57
2023/06/11 04:43:27;;;;;;;8.10;7.38;;;;;;;22.48;52.08;100153.13;10290338;28;20145;-57
2023/06/11 04:48:31;;;;;;;6.03;5.47;;;;;;;22.47;52.17;100151.44;10287802;28;20121;-57
2023/06/11 04:53:36;;;;;;;6.13;5.60;;;;;;;22.44;52.15;100132.03;10311028;28;20046;-57
2023/06/11 04:58:39;;;;;;;6.55;5.25;;;;;;;22.43;52.07;100142.06;10297338;28;20065;-57
2023/06/11 05:03:40;;;;;;;6.13;5.53;;;;;;;22.47;52.22;100151.44;10302245;28;20180;-57
2023/06/11 05:08:42;;;;;;;6.28;5.65;;;;;;;22.46;52.25;100140.78;10315175;28;20054;-57
2023/06/11 05:13:44;;;;;;;6.75;5.43;;;;;;;22.49;52.00;100138.53;10311970;28;20191;-57
2023/06/11 05:18:45;;;;;;;6.30;5.80;;;;;;;22.56;52.27;100139.38;10311936;28;20107;-57
2023/06/11 05:23:47;;;;;;;6.55;6.05;;;;;;;22.55;51.89;100128.75;10313759;28;20105;-56
2023/06/11 05:28:48;;;;;;;6.10;5.60;;;;;;;22.66;51.59;100149.00;10314120;28;20548;-57
2023/06/11 05:33:51;;;;;;;7.60;6.18;;;;;;;22.70;51.66;100142.09;10303025;28;20121;-57
2023/06/11 05:38:53;;;;;;;5.77;5.27;;;;;;;22.79;51.65;100143.59;10296322;28;20133;-57
2023/06/11 05:43:54;;;;;;;6.72;5.95;;;;;;;22.84;51.10;100160.06;10308771;28;20049;-56
2023/06/11 05:48:57;;;;;;;6.07;5.57;;;;;;;22.91;51.20;100163.66;10312833;28;20058;-56
2023/06/11 05:54:01;;;;;;;7.60;6.07;;;;;;;22.94;51.01;100165.13;10316422;28;20211;-56
2023/06/11 05:59:02;;;;;;;5.78;5.25;;;;;;;23.02;50.15;100180.34;10310703;28;20589;-57
2023/06/11 06:04:04;;;;;;;5.65;5.25;;;;;;;23.07;50.52;100167.81;10294852;28;20203;-56
2023/06/11 06:09:06;;;;;;;6.40;5.82;;;;;;;23.20;50.28;100166.19;10307610;28;20184;-57
2023/06/11 06:14:07;;;;;;;5.85;5.45;;;;;;;23.15;50.05;100172.25;10301794;28;20530;-57
2023/06/11 06:19:09;;;;;;;6.15;5.65;;;;;;;23.34;49.25;100177.88;10303989;28;20092;-57
2023/06/11 06:24:11;;;;;;;6.70;6.10;;;;;;;23.42;49.41;100180.38;10291137;28;20144;-57
2023/06/11 06:29:13;;;;;;;5.72;5.22;;;;;;;23.56;49.12;100182.06;10296626;28;20127;-57
2023/06/11 06:34:14;;;;;;;5.47;5.07;;;;;;;23.70;49.46;100187.47;10300626;28;20398;-58
2023/06/11 06:39:16;;;;;;;5.72;5.22;;;;;;;23.79;49.13;100186.19;10298658;28;20057;-56
2023/06/11 06:44:18;;;;;;;17.60;16.30;;;;;;;23.90;49.24;100198.31;10297768;28;20049;-57
2023/06/11 06:49:20;;;;;;;6.45;5.85;;;;;;;23.91;47.70;100200.00;10294079;28;20060;-57
2023/06/11 06:54:22;;;;;;;6.35;5.80;;;;;;;23.96;48.38;100190.16;10290442;28;20050;-58
2023/06/11 06:59:23;;;;;;;6.32;5.72;;;;;;;24.09;47.85;100194.72;10292383;28;20544;-58
2023/06/11 07:04:25;;;;;;;6.38;5.82;;;;;;;24.15;47.37;100204.72;10291270;28;20054;-58
2023/06/11 07:09:27;;;;;;;5.75;5.25;;;;;;;24.21;47.94;100204.94;10293724;28;20062;-58
2023/06/11 07:14:29;;;;;;;5.55;5.15;;;;;;;24.40;47.46;100208.63;10287948;28;20054;-57
2023/06/11 07:19:30;;;;;;;6.85;6.07;;;;;;;24.58;46.98;100200.63;10275413;28;21068;-59
2023/06/11 07:24:32;;;;;;;5.97;5.25;;;;;;;24.65;46.93;100201.44;10277535;28;20523;-58
2023/06/11 07:29:33;;;;;;;6.00;5.50;;;;;;;24.85;46.85;100208.66;10281819;28;20069;-60
2023/06/11 07:34:35;;;;;;;6.18;5.68;;;;;;;25.02;46.75;100214.41;10299613;28;20123;-57
2023/06/11 07:39:36;;;;;;;5.85;5.32;;;;;;;25.10;46.11;100214.16;10300588;28;20050;-57
2023/06/11 07:44:38;;;;;;;6.20;5.80;;;;;;;25.23;46.06;100211.28;10301197;28;20115;-57
2023/06/11 07:49:39;;;;;;;6.40;5.68;;;;;;;25.39;45.74;100212.69;10293716;28;20180;-58
2023/06/11 07:54:41;;;;;;;6.43;5.82;;;;;;;25.57;45.17;100202.88;10282425;28;20054;-58
2023/06/11 07:59:43;;;;;;;6.32;5.82;;;;;;;25.74;45.24;100203.97;10291375;28;20068;-57
2023/06/11 08:04:45;;;;;;;6.60;5.50;;;;;;;25.88;44.09;100203.84;10289339;28;20050;-57
2023/06/11 08:09:47;;;;;;;6.27;5.77;;;;;;;25.89;44.13;100200.06;10291737;28;20113;-57
2023/06/11 08:14:50;;;;;;;7.65;5.57;;;;;;;26.09;43.66;100195.25;10301933;28;20065;-57
2023/06/11 08:19:51;;;;;;;6.13;5.45;;;;;;;26.09;43.14;100189.81;10283576;28;20054;-47
2023/06/11 08:24:52;;;;;;;5.93;5.43;;;;;;;26.11;42.54;100193.13;10299989;28;20088;-47
2023/06/11 08:29:54;;;;;;;5.10;4.63;;;;;;;26.21;41.38;100189.88;10306082;28;20048;-47
2023/06/11 08:34:55;;;;;;;6.35;5.50;;;;;;;26.26;39.77;100183.72;10302007;28;20053;-47
2023/06/11 08:39:57;;;;;;;6.35;5.00;;;;;;;26.36;39.05;100184.03;10303944;28;20502;-47
2023/06/11 08:44:58;;;;;;;5.35;4.68;;;;;;;26.45;38.91;100179.06;10284960;28;20058;-47
2023/06/11 08:50:02;;;;;;;5.00;4.47;;;;;;;26.49;39.28;100187.63;10302754;28;20066;-47
2023/06/11 08:55:04;;;;;;;5.65;5.10;;;;;;;26.75;38.58;100175.53;10282728;28;20057;-60
2023/06/11 09:00:09;;;;;;;5.03;4.60;;;;;;;26.99;36.86;100179.16;10299978;28;20060;-60
2023/06/11 09:05:11;;;;;;;6.15;5.57;;;;;;;26.99;37.39;100180.00;10292873;28;20084;-60
2023/06/11 09:10:13;;;;;;;4.63;4.22;;;;;;;27.03;36.35;100153.03;10299585;28;20062;-60
2023/06/11 09:15:17;;;;;;;5.30;4.38;;;;;;;27.33;36.02;100163.91;10296598;28;20194;-61
2023/06/11 09:20:19;;;;;;;4.65;4.25;;;;;;;27.51;34.74;100154.78;10275262;28;20090;-60
2023/06/11 09:25:21;;;;;;;5.03;4.47;;;;;;;27.80;34.24;100163.09;10285226;28;20064;-59
2023/06/11 09:30:22;;;;;;;4.88;4.43;;;;;;;27.90;31.86;100172.59;10300438;28;20107;-59
2023/06/11 09:35:24;;;;;;;4.45;3.75;;;;;;;27.93;32.12;100166.63;10302558;28;20061;-59
2023/06/11 09:40:27;;;;;;;5.38;4.85;;;;;;;28.04;30.68;100169.38;10284671;28;20068;-60
2023/06/11 09:45:31;;;;;;;4.20;3.60;;;;;;;28.09;30.89;100173.28;10300583;28;20156;-60
2023/06/11 09:50:33;;;;;;;6.22;4.20;;;;;;;28.21;30.33;100169.44;10287995;28;20329;-59
2023/06/11 09:55:35;;;;;;;6.20;3.87;;;;;;;28.41;29.79;100175.59;10304696;28;20137;-59
2023/06/11 10:00:36;;;;;;;4.53;3.73;;;;;;;28.55;30.63;100165.97;10304589;28;20052;-60
2023/06/11 10:05:38;;;;;;;4.47;4.10;;;;;;;28.65;30.00;100159.91;10298776;28;20050;-64
2023/06/11 10:10:42;;;;;;;6.27;4.50;;;;;;;28.73;29.33;100156.75;10302184;28;20160;-59
2023/06/11 10:15:48;;;;;;;4.25;3.85;;;;;;;28.82;29.03;100170.88;10295422;28;21302;-59
2023/06/11 10:20:52;;;;;;;6.35;4.10;;;;;;;28.89;29.48;100172.38;10279760;28;20049;-60
2023/06/11 10:25:54;;;;;;;4.43;4.05;;;;;;;29.12;29.81;100167.84;10287356;28;20163;-59
2023/06/11 10:30:56;;;;;;;4.78;3.65;;;;;;;29.27;27.63;100159.91;10283524;28;21830;-59
2023/06/11 10:36:00;;;;;;;5.07;4.15;;;;;;;29.39;27.58;100164.47;10298104;28;20144;-59
2023/06/11 10:41:05;;;;;;;7.70;4.43;;;;;;;29.42;27.50;100158.47;10302045;28;20124;-59
2023/06/11 10:46:11;;;;;;;4.30;4.00;;;;;;;29.64;28.35;100154.97;10302246;28;20156;-60
2023/06/11 10:51:13;;;;;;;5.93;4.07;;;;;;;29.46;28.18;100154.16;10286870;28;20053;-59
2023/06/11 10:56:19;;;;;;;5.93;4.07;;;;;;;29.57;27.94;100155.13;10300064;28;20053;-58
2023/06/11 11:01:21;;;;;;;5.53;4.57;;;;;;;29.70;27.77;100149.28;10303754;28;20144;-59
2023/06/11 11:06:26;;;;;;;4.03;3.72;;;;;;;29.85;27.55;100153.38;10301907;28;20178;-59
2023/06/11 11:11:30;;;;;;;5.03;3.88;;;;;;;30.01;26.89;100132.44;10299889;28;20168;-59
2023/06/11 11:16:31;;;;;;;4.60;3.50;;;;;;;30.13;27.56;100136.72;10282371;28;21096;-59
2023/06/11 11:21:33;;;;;;;5.63;3.78;;;;;;;30.38;26.55;100134.50;10279328;28;20766;-59
2023/06/11 11:26:42;;;;;;;3.75;3.45;;;;;;;30.50;26.08;100132.47;10302256;28;20053;-60
2023/06/11 11:31:45;;;;;;;4.10;3.50;;;;;;;30.54;26.23;100114.38;10297887;28;20068;-58
2023/06/11 11:36:46;;;;;;;4.90;4.40;;;;;;;30.64;25.64;100127.38;10301677;28;20180;-59
2023/06/11 11:41:51;;;;;;;3.63;3.33;;;;;;;30.65;25.56;100120.81;10288781;28;20052;-59
2023/06/11 11:46:57;;;;;;;5.65;4.18;;;;;;;30.89;24.68;100121.28;10300613;28;20148;-59
2023/06/11 11:52:00;;;;;;;4.05;3.58;;;;;;;30.83;25.07;100112.16;10302623;28;20046;-59
2023/06/11 11:57:06;;;;;;;5.03;3.67;;;;;;;31.06;25.38;100112.09;10300296;28;20123;-58
2023/06/11 12:02:09;;;;;;;4.40;3.97;;;;;;;31.23;23.90;100107.28;10301024;28;20537;-59
2023/06/11 12:07:13;;;;;;;3.95;3.45;;;;;;;31.22;24.61;100094.63;10301707;28;20053;-59
2023/06/11 12:12:15;;;;;;;4.70;3.40;;;;;;;31.32;24.57;100102.13;10300874;28;20079;-58
2023/06/11 12:17:17;;;;;;;4.05;3.67;;;;;;;31.31;24.78;100095.78;10290025;28;20058;-59
2023/06/11 12:22:19;;;;;;;4.68;3.75;;;;;;;31.23;24.35;100084.44;10303971;28;20975;-59
2023/06/11 12:27:22;;;;;;;4.22;3.10;;;;;;;31.23;25.32;100077.06;10295865;28;21271;-59
2023/06/11 12:32:25;;;;;;;4.22;3.83;;;;;;;31.25;24.54;100072.09;10290723;28;20728;-58
2023/06/11 12:37:28;;;;;;;5.40;3.17;;;;;;;31.29;24.17;100070.50;10311725;28;20126;-60
2023/06/11 12:42:33;;;;;;;5.60;3.60;;;;;;;31.24;23.87;100067.69;10292265;28;20065;-59
2023/06/11 12:47:34;;;;;;;5.15;3.58;;;;;;;31.30;24.49;100055.66;10292629;28;21029;-60
2023/06/11 12:52:37;;;;;;;;;;;;;;;31.25;23.74;100072.09;10302623;28;20558;-59
2023/06/11 12:57:39;;;;;;;6.65;3.50;;;;;;;31.21;24.61;100062.72;10277267;28;19947;-59
2023/06/11 13:02:41;;;;;;;5.28;3.38;;;;;;;31.30;24.03;100057.56;10306343;28;20212;-58
2023/06/11 13:07:45;;;;;;;3.50;3.20;;;;;;;31.29;23.41;100056.75;10305045;28;22129;-60
2023/06/11 13:12:46;;;;;;;4.18;3.50;;;;;;;31.16;23.81;100037.97;10292297;28;20069;-59
2023/06/11 13:17:48;;;;;;;6.30;3.20;;;;;;;31.08;23.97;100046.72;10301289;28;20104;-59
2023/06/11 13:22:50;;;;;;;3.70;3.40;;;;;;;31.06;24.33;100037.91;10298901;28;20158;-59
2023/06/11 13:27:51;;;;;;;;;;;;;;;31.08;23.40;100038.47;10304918;28;20822;-59
2023/06/11 13:32:53;;;;;;;5.30;3.47;;;;;;;31.09;24.26;100040.97;10302043;28;20013;-59
2023/06/11 13:37:54;;;;;;;3.50;3.20;;;;;;;31.09;23.26;100037.38;10285289;28;20149;-59
2023/06/11 13:42:56;;;;;;;5.05;3.80;;;;;;;30.88;22.40;100036.38;10307973;28;20062;-59
2023/06/11 13:48:14;;;;;;;3.88;3.13;;;;;;;30.78;23.51;100024.22;10291028;28;20657;-59
2023/06/11 13:53:18;;;;;;;4.25;3.30;;;;;;;30.66;23.22;100012.59;10297546;28;20065;-59
2023/06/11 13:58:23;;;;;;;3.92;3.05;;;;;;;30.64;23.33;100010.13;10302212;28;20057;-59
2023/06/11 14:03:25;;;;;;;5.15;3.10;;;;;;;30.58;23.84;100013.91;10291476;28;21548;-59
2023/06/11 14:08:27;;;;;;;3.67;3.15;;;;;;;30.53;23.69;100013.84;10282929;28;20098;-60
2023/06/11 14:13:29;;;;;;;3.97;3.20;;;;;;;30.48;23.73;100006.41;10296021;28;20753;-59
2023/06/11 14:18:31;;;;;;;3.78;3.15;;;;;;;30.46;23.95;99999.50;10296551;28;20065;-59
2023/06/11 14:23:33;;;;;;;3.50;2.92;;;;;;;30.44;22.94;100005.28;10282425;28;20081;-59
2023/06/11 14:28:35;;;;;;;;;;;;;;;30.36;22.20;99992.00;10297475;28;20057;-59
2023/06/11 14:33:36;;;;;;;3.72;3.28;;;;;;;30.25;22.44;99990.25;10294573;28;20550;-63
2023/06/11 14:38:38;;;;;;;3.47;3.17;;;;;;;30.13;23.04;99979.44;10293541;28;20049;-59
2023/06/11 14:43:40;;;;;;;5.68;3.45;;;;;;;30.11;22.86;99979.69;10282492;28;20057;-59
2023/06/11 14:48:41;;;;;;;4.55;2.92;;;;;;;30.02;22.74;99969.47;10296151;28;20045;-59
2023/06/11 14:53:43;;;;;;;3.37;2.70;;;;;;;30.07;22.38;99966.75;10294360;28;20248;-64
2023/06/11 14:58:44;;;;;;;3.53;2.60;;;;;;;29.99;22.17;99953.53;10297293;28;20070;-58
2023/06/11 15:03:46;;;;;;;4.47;3.10;;;;;;;30.02;22.08;99958.47;10293499;28;20058;-59
2023/06/11 15:08:53;;;;;;;4.95;3.55;;;;;;;29.94;22.17;99952.38;10275961;28;20053;-59
2023/06/11 15:13:55;;;;;;;3.88;3.35;;;;;;;29.91;22.00;99952.06;10294956;28;20050;-59
2023/06/11 15:18:57;;;;;;;3.55;2.65;;;;;;;29.85;21.98;99945.69;10278774;28;20545;-58
2023/06/11 15:23:59;;;;;;;4.95;2.95;;;;;;;29.82;21.94;99951.72;10289245;28;20129;-59
2023/06/11 15:29:00;;;;;;;3.43;3.10;;;;;;;29.69;21.68;99938.38;10292445;28;20681;-59
2023/06/11 15:34:03;;;;;;;4.60;3.05;;;;;;;29.60;21.78;99930.59;10291389;28;20388;-59
2023/06/11 15:39:04;;;;;;;3.33;3.03;;;;;;;29.60;20.20;99935.25;10292535;28;20049;-59
2023/06/11 15:44:06;;;;;;;3.30;3.00;;;;;;;29.62;21.65;99933.91;10289321;28;20085;-58
2023/06/11 15:49:07;;;;;;;3.73;3.00;;;;;;;29.67;21.50;99929.59;10294535;28;20053;-59
2023/06/11 15:54:09;;;;;;;3.55;2.83;;;;;;;29.67;21.67;99929.59;10299474;28;20058;-58
2023/06/11 15:59:11;;;;;;;2.78;2.55;;;;;;;29.69;21.31;99924.66;10289703;28;20061;-59
2023/06/11 16:04:13;;;;;;;2.83;2.58;;;;;;;29.61;21.30;99926.78;10296228;28;20177;-58
2023/06/11 16:09:15;;;;;;;5.32;2.60;;;;;;;29.59;21.02;99928.97;10285054;28;20579;-59
2023/06/11 16:14:18;;;;;;;4.05;3.00;;;;;;;29.59;21.20;99928.09;10275497;28;20049;-59
2023/06/11 16:19:20;;;;;;;4.70;3.17;;;;;;;29.51;21.17;99926.66;10298436;28;20058;-59
2023/06/11 16:24:22;;;;;;;3.57;3.10;;;;;;;29.48;20.80;99927.16;10307073;28;20149;-59
2023/06/11 16:29:23;;;;;;;3.13;2.57;;;;;;;29.48;20.49;99924.44;10300516;28;20058;-60
2023/06/11 16:34:25;;;;;;;2.72;2.33;;;;;;;29.48;20.01;99926.34;10299369;28;20050;-59
2023/06/11 16:39:26;;;;;;;4.20;3.90;;;;;;;29.43;20.03;99910.69;10305022;28;20049;-59
2023/06/11 16:44:29;;;;;;;3.75;2.70;;;;;;;29.43;20.17;99919.72;10287608;28;20065;-58
2023/06/11 16:49:32;;;;;;;3.10;2.73;;;;;;;29.36;20.41;99916.34;10305229;28;20802;-59
2023/06/11 16:54:34;;;;;;;6.32;4.93;;;;;;;29.34;20.25;99910.31;10288572;28;20507;-59
2023/06/11 16:59:36;;;;;;;5.18;4.00;;;;;;;29.26;20.46;99911.59;10295925;28;20835;-59
2023/06/11 17:04:37;;;;;;;4.03;3.23;;;;;;;29.22;20.76;99913.16;10297493;28;20050;-59
2023/06/11 17:09:42;;;;;;;3.63;2.53;;;;;;;29.14;20.63;99907.28;10284065;28;20053;-58
2023/06/11 17:14:44;;;;;;;3.75;2.75;;;;;;;29.14;20.59;99910.88;10302061;28;20062;-59
2023/06/11 17:19:45;;;;;;;4.93;3.10;;;;;;;29.09;21.08;99908.03;10299252;28;20657;-60
2023/06/11 17:24:48;;;;;;;3.63;3.13;;;;;;;29.03;21.08;99906.31;10264840;28;20060;-58
2023/06/11 17:29:51;;;;;;;4.57;3.00;;;;;;;28.97;21.38;99916.38;10278984;28;20293;-60
2023/06/11 17:34:55;;;;;;;;;;;;;;;28.91;20.91;99907.28;10268994;28;20235;-58
2023/06/11 17:39:57;;;;;;;4.47;2.95;;;;;;;28.85;22.01;99908.28;10295907;28;19929;-58
2023/06/11 17:44:58;;;;;;;3.50;3.13;;;;;;;28.76;21.78;99904.31;10276788;28;20158;-58
2023/06/11 17:50:00;;;;;;;4.47;3.08;;;;;;;28.71;22.04;99905.06;10279134;28;20096;-58
2023/06/11 17:55:02;;;;;;;3.40;2.40;;;;;;;28.69;22.37;99909.13;10275560;28;20380;-59
2023/06/11 18:00:05;;;;;;;4.18;3.17;;;;;;;28.64;22.57;99906.34;10274171;28;20054;-60
2023/06/11 18:05:07;;;;;;;;;;;;;;;28.57;22.19;99901.03;10302505;28;20115;-58
2023/06/11 18:10:10;;;;;;;3.00;2.70;;;;;;;28.50;23.23;99903.91;10299898;28;20487;-58
2023/06/11 18:15:12;;;;;;;4.28;3.10;;;;;;;28.43;23.64;99911.47;10279173;28;20635;-58
2023/06/11 18:20:33;;;;;;;5.43;3.50;;;;;;;28.39;23.61;99921.28;10298450;28;20107;-58
2023/06/11 18:25:35;;;;;;;5.47;3.17;;;;;;;28.30;23.92;99922.75;10293119;28;20713;-58
2023/06/11 18:30:36;;;;;;;3.57;3.00;;;;;;;28.19;23.77;99917.16;10292546;28;20549;-57
2023/06/11 18:35:38;;;;;;;4.80;2.97;;;;;;;28.13;23.64;99906.34;10274168;28;20068;-57
2023/06/11 18:40:40;;;;;;;4.55;3.38;;;;;;;28.06;24.43;99922.09;10286063;28;20822;-58
2023/06/11 18:45:41;;;;;;;3.60;3.30;;;;;;;27.94;24.43;99919.38;10288558;28;20159;-57
2023/06/11 18:50:43;;;;;;;4.43;2.70;;;;;;;27.80;24.39;99918.88;10292008;28;20904;-59
2023/06/11 18:55:44;;;;;;;3.33;2.78;;;;;;;27.61;24.74;99921.81;10289039;28;20652;-58
2023/06/11 19:00:46;;;;;;;5.13;2.85;;;;;;;27.49;25.31;99924.59;10279430;28;20169;-58
2023/06/11 19:05:49;;;;;;;3.37;3.00;;;;;;;27.40;25.21;99937.00;10293582;28;20235;-60
2023/06/11 19:10:52;;;;;;;4.03;3.10;;;;;;;27.30;25.57;99936.75;10290765;28;20292;-60
2023/06/11 19:15:54;;;;;;;4.82;4.07;;;;;;;27.19;25.92;99943.06;10278113;28;20434;-59
2023/06/11 19:20:55;;;;;;;3.78;2.83;;;;;;;27.10;25.93;99946.19;10276849;28;20061;-59
2023/06/11 19:25:57;;;;;;;5.22;3.67;;;;;;;27.05;26.15;99948.78;10279490;28;20050;-59
2023/06/11 19:30:58;;;;;;;3.38;3.08;;;;;;;26.98;26.36;99961.75;10295366;28;20169;-59
2023/06/11 19:36:01;;;;;;;3.70;3.40;;;;;;;26.91;26.42;99966.50;10302774;28;20629;-58
2023/06/11 19:41:02;;;;;;;3.80;3.47;;;;;;;26.86;26.45;99966.38;10298501;28;20129;-58
2023/06/11 19:46:04;;;;;;;4.82;3.50;;;;;;;26.81;26.35;99973.41;10306174;28;20586;-58
2023/06/11 19:51:05;;;;;;;4.57;3.30;;;;;;;26.74;26.30;99972.69;10297577;28;20850;-58
2023/06/11 19:56:16;;;;;;;5.15;3.97;;;;;;;26.70;26.59;99987.06;10276596;28;20046;-58
2023/06/11 20:01:18;;;;;;;4.22;3.28;;;;;;;26.54;26.46;99977.63;10288737;28;20077;-58
2023/06/11 20:06:20;;;;;;;3.50;3.20;;;;;;;26.55;26.76;99992.94;10298200;28;21475;-58
2023/06/11 20:11:22;;;;;;;5.00;3.47;;;;;;;26.49;26.50;99997.44;10281828;28;20061;-59
2023/06/11 20:16:23;;;;;;;4.32;3.35;;;;;;;26.39;26.94;99992.56;10281938;28;20720;-58
2023/06/11 20:21:25;;;;;;;4.18;3.20;;;;;;;26.31;26.93;100000.25;10289756;28;20597;-58
2023/06/11 20:26:26;;;;;;;4.70;3.60;;;;;;;26.21;27.19;100006.25;10299595;28;20064;-62
2023/06/11 20:31:28;;;;;;;3.75;3.17;;;;;;;26.14;26.83;100010.97;10297383;28;20058;-58
2023/06/11 20:36:30;;;;;;;3.85;3.35;;;;;;;26.09;27.70;100019.84;10292407;28;20099;-56
2023/06/11 20:41:31;;;;;;;4.22;2.83;;;;;;;25.95;28.53;100016.47;10301101;28;20766;-56
2023/06/11 20:46:33;;;;;;;4.10;3.53;;;;;;;25.95;28.15;100016.47;10293765;28;20050;-57
2023/06/11 20:51:34;;;;;;;3.78;3.38;;;;;;;25.87;28.12;100012.16;10294154;28;20054;-60
2023/06/11 20:56:36;;;;;;;4.03;3.60;;;;;;;25.84;28.27;100017.25;10308736;28;20061;-56
2023/06/11 21:01:38;;;;;;;4.13;3.60;;;;;;;25.72;28.62;99998.13;10311364;28;20125;-55
2023/06/11 21:06:40;;;;;;;5.88;4.07;;;;;;;25.70;28.94;100003.78;10282920;28;20132;-56
2023/06/11 21:11:42;;;;;;;4.77;3.30;;;;;;;25.61;29.04;99998.88;10302809;28;20361;-55
2023/06/11 21:16:43;;;;;;;4.10;3.25;;;;;;;25.57;30.30;100007.50;10288054;28;20077;-55
2023/06/11 21:21:45;;;;;;;4.70;3.20;;;;;;;25.48;29.57;99999.88;10312917;28;20518;-56
2023/06/11 21:26:47;;;;;;;4.22;3.85;;;;;;;25.47;30.12;100000.94;10306658;28;20064;-56
2023/06/11 21:31:48;;;;;;;5.07;3.42;;;;;;;25.39;30.57;100008.34;10313324;28;20069;-56
2023/06/11 21:36:50;;;;;;;4.03;3.70;;;;;;;25.33;30.67;100006.53;10308867;28;20054;-56
2023/06/11 21:41:51;;;;;;;4.32;3.92;;;;;;;25.30;31.17;100015.16;10309211;28;20050;-56
2023/06/11 21:46:53;;;;;;;4.10;3.50;;;;;;;25.26;31.61;100007.66;10313907;28;20049;-56
2023/06/11 21:51:56;;;;;;;4.60;3.40;;;;;;;25.16;31.48;100002.69;10305116;28;20131;-56
2023/06/11 21:56:57;;;;;;;5.10;3.70;;;;;;;25.11;31.73;100008.84;10308736;28;20062;-56
2023/06/11 22:01:58;;;;;;;5.57;4.45;;;;;;;25.06;32.51;100006.78;10299202;28;20135;-56
2023/06/11 22:07:00;;;;;;;5.47;4.03;;;;;;;24.96;32.69;100000.19;10308812;28;20157;-56
2023/06/11 22:12:02;;;;;;;4.03;3.70;;;;;;;24.97;33.00;100008.13;10305391;28;20058;-56
2023/06/11 22:17:04;;;;;;;4.45;4.03;;;;;;;24.94;33.16;100014.03;10306527;28;20154;-56
2023/06/11 22:22:10;;;;;;;6.68;3.95;;;;;;;24.89;33.66;100011.13;10296318;28;20107;-55
2023/06/11 22:27:13;;;;;;;6.95;3.72;;;;;;;24.84;34.17;100019.97;10310539;28;20223;-56
2023/06/11 22:32:16;;;;;;;4.53;3.63;;;;;;;24.76;33.97;100014.00;10304001;28;20062;-55
2023/06/11 22:37:17;;;;;;;4.80;3.85;;;;;;;24.68;34.45;100009.66;10308083;28;20066;-55
2023/06/11 22:42:19;;;;;;;7.22;4.28;;;;;;;24.64;34.17;100009.28;10301411;28;20052;-62
2023/06/11 22:47:20;;;;;;;7.53;4.68;;;;;;;24.55;34.60;100004.31;10295353;28;20050;-56
2023/06/11 22:52:22;;;;;;;5.00;3.45;;;;;;;24.51;34.90;100010.16;10314615;28;20133;-56
2023/06/11 22:57:23;;;;;;;5.15;4.40;;;;;;;24.48;35.41;100009.78;10296045;28;20058;-56
2023/06/11 23:02:25;;;;;;;5.63;3.95;;;;;;;24.44;35.64;100008.56;10300462;28;20072;-60
2023/06/11 23:07:27;;;;;;;5.03;4.53;;;;;;;24.33;36.11;100005.50;10308404;28;20115;-56
2023/06/11 23:12:28;;;;;;;5.10;4.00;;;;;;;24.37;36.79;100018.69;10309937;28;20111;-56